Time;durP1;ratioP1;P1;durP2;ratioP2;P2;SDS_P1;SDS_P2;PMS_P1;PMS_P2;Temp;Humidity;BMP_temperature;BMP_pressure;BME280_temperature;BME280_humidity;BME280_pressure;Samples;Min_cycle;Max_cycle;Signal;HPM_P1;HPM_P2
2022/10/12 00:00:52;;;;;;;1.33;0.80;;;7.50;86.20;;;;;;6275463;22;20439;-75
2022/10/12 00:03:19;;;;;;;1.98;0.73;;;7.50;86.20;;;;;;6275708;22;20420;-74
2022/10/12 00:05:46;;;;;;;1.02;0.73;;;7.50;86.20;;;;;;6275906;22;20056;-75
2022/10/12 00:08:12;;;;;;;1.83;0.85;;;7.40;86.20;;;;;;6248065;22;20012;-74
2022/10/12 00:10:40;;;;;;;0.90;0.65;;;7.50;86.20;;;;;;6247771;22;20008;-75
2022/10/12 00:13:06;;;;;;;2.25;0.90;;;7.50;86.20;;;;;;6247712;22;20039;-74
2022/10/12 00:15:36;;;;;;;0.75;0.50;;;7.40;86.20;;;;;;6274839;22;20007;-75
2022/10/12 00:18:02;;;;;;;1.33;0.85;;;7.40;86.20;;;;;;6248246;22;20317;-74
2022/10/12 00:20:28;;;;;;;1.00;0.88;;;7.40;86.20;;;;;;6274971;22;20065;-75
2022/10/12 00:22:54;;;;;;;1.00;0.70;;;7.40;86.30;;;;;;6247952;22;20130;-74
2022/10/12 00:25:21;;;;;;;1.23;0.80;;;7.40;86.30;;;;;;6275005;22;20003;-75
2022/10/12 00:27:47;;;;;;;1.08;0.60;;;7.30;86.20;;;;;;6247608;22;20018;-74
2022/10/12 00:30:13;;;;;;;1.05;0.55;;;7.40;86.30;;;;;;6247964;22;20039;-74
2022/10/12 00:32:39;;;;;;;1.63;0.70;;;7.30;86.30;;;;;;6247441;22;20057;-74
2022/10/12 00:35:06;;;;;;;1.05;0.73;;;7.30;86.40;;;;;;6274902;22;20038;-74
2022/10/12 00:37:32;;;;;;;1.00;0.70;;;7.30;86.40;;;;;;6247313;22;20008;-75
2022/10/12 00:39:57;;;;;;;1.33;0.80;;;7.20;86.40;;;;;;6247110;22;20068;-74
2022/10/12 00:42:23;;;;;;;1.05;0.73;;;7.30;86.50;;;;;;6274826;22;20008;-75
2022/10/12 00:44:50;;;;;;;1.25;0.80;;;7.30;86.50;;;;;;6247561;22;20015;-74
2022/10/12 00:47:23;;;;;;;1.15;0.60;;;7.30;86.60;;;;;;6222244;22;20018;-74
2022/10/12 00:50:11;;;;;;;2.15;1.05;;;7.20;86.50;;;;;;6248148;22;20038;-74
2022/10/12 00:52:45;;;;;;;1.02;0.80;;;7.20;86.60;;;;;;6247440;22;20016;-75
2022/10/12 00:55:16;;;;;;;1.13;0.70;;;7.20;86.60;;;;;;6274630;22;20313;-74
2022/10/12 00:57:42;;;;;;;0.80;0.60;;;7.20;86.50;;;;;;6274569;22;20000;-74
2022/10/12 01:00:09;;;;;;;1.00;0.60;;;7.20;86.50;;;;;;6248292;22;20375;-75
2022/10/12 01:02:39;;;;;;;0.75;0.60;;;7.10;86.50;;;;;;6274684;22;20004;-75
2022/10/12 01:05:06;;;;;;;1.73;0.82;;;7.00;86.50;;;;;;6247812;22;20069;-75
2022/10/12 01:07:32;;;;;;;0.60;0.60;;;7.10;86.60;;;;;;6248066;22;20011;-75
2022/10/12 01:09:58;;;;;;;1.27;0.70;;;7.20;86.60;;;;;;6247586;22;20012;-75
2022/10/12 01:12:25;;;;;;;0.98;0.70;;;7.20;86.60;;;;;;6247382;22;20327;-74
2022/10/12 01:14:51;;;;;;;1.15;0.80;;;7.20;86.60;;;;;;6222405;22;20012;-75
2022/10/12 01:17:37;;;;;;;0.80;0.63;;;7.20;86.60;;;;;;6247213;22;20458;-75
2022/10/12 01:20:33;;;;;;;0.98;0.60;;;7.20;86.70;;;;;;6274284;22;20074;-75
2022/10/12 01:23:28;;;;;;;1.58;0.82;;;7.00;86.50;;;;;;6274111;22;20103;-75
2022/10/12 01:26:24;;;;;;;1.10;0.68;;;7.10;86.50;;;;;;6274802;22;20011;-75
2022/10/12 01:29:24;;;;;;;0.98;0.50;;;7.00;86.50;;;;;;6251454;22;20012;-75
2022/10/12 01:32:08;;;;;;;1.42;0.70;;;7.10;86.60;;;;;;6247133;22;20095;-75
2022/10/12 01:34:44;;;;;;;1.15;0.70;;;7.00;86.60;;;;;;6274287;22;20038;-75
2022/10/12 01:37:33;;;;;;;1.63;0.63;;;7.10;86.70;;;;;;6274290;22;20004;-75
2022/10/12 01:40:03;;;;;;;1.10;0.60;;;7.10;86.70;;;;;;6252258;22;20463;-75
2022/10/12 01:42:36;;;;;;;1.08;0.60;;;7.10;86.70;;;;;;6247047;22;20344;-75
2022/10/12 01:45:07;;;;;;;1.25;0.73;;;7.10;86.70;;;;;;6274012;22;20015;-75
2022/10/12 01:47:34;;;;;;;0.95;0.60;;;7.20;86.70;;;;;;6273942;22;20023;-75
2022/10/12 01:50:02;;;;;;;1.08;0.63;;;7.10;86.70;;;;;;6274431;22;20046;-75
2022/10/12 01:52:30;;;;;;;1.02;0.80;;;7.10;86.70;;;;;;6274225;22;20061;-75
2022/10/12 01:55:35;;;;;;;2.17;0.60;;;7.10;86.70;;;;;;6248464;22;20388;-74
2022/10/12 01:58:28;;;;;;;1.85;0.63;;;7.10;86.70;;;;;;6256300;22;20317;-75
2022/10/12 02:01:32;;;;;;;1.40;0.80;;;7.00;86.60;;;;;;6275256;22;20003;-75
2022/10/12 02:04:26;;;;;;;0.93;0.50;;;7.10;86.70;;;;;;6232089;22;20086;-75
2022/10/12 02:07:00;;;;;;;1.92;0.88;;;7.10;86.70;;;;;;6248328;22;20018;-74
2022/10/12 02:09:30;;;;;;;1.23;0.80;;;7.20;86.70;;;;;;6248850;22;20348;-75
2022/10/12 02:12:02;;;;;;;0.85;0.50;;;7.10;86.60;;;;;;6248623;22;20008;-75
2022/10/12 02:14:34;;;;;;;1.60;0.90;;;7.10;86.60;;;;;;6249144;22;19999;-75
2022/10/12 02:17:03;;;;;;;1.48;0.80;;;7.10;86.60;;;;;;6248530;22;20004;-75
2022/10/12 02:19:36;;;;;;;1.17;0.70;;;7.00;86.50;;;;;;6248791;22;20015;-75
2022/10/12 02:22:05;;;;;;;0.95;0.55;;;7.10;86.70;;;;;;6275081;22;20011;-75
2022/10/12 02:24:36;;;;;;;0.50;0.47;;;7.20;86.70;;;;;;6245802;22;20432;-75
2022/10/12 02:27:02;;;;;;;1.17;0.60;;;7.20;86.70;;;;;;6248092;22;20022;-75
2022/10/12 02:29:35;;;;;;;0.63;0.40;;;7.10;86.60;;;;;;6219645;22;20015;-75
2022/10/12 02:32:34;;;;;;;1.77;0.77;;;7.10;86.70;;;;;;6221522;22;20091;-75
2022/10/12 02:35:24;;;;;;;0.75;0.57;;;7.10;86.80;;;;;;6275627;22;20042;-75
2022/10/12 02:37:59;;;;;;;0.90;0.70;;;7.10;86.80;;;;;;6223068;22;20038;-75
2022/10/12 02:40:33;;;;;;;0.80;0.52;;;7.10;86.80;;;;;;6221864;22;20011;-75
2022/10/12 02:43:15;;;;;;;1.75;0.60;;;7.10;86.80;;;;;;6249064;22;20061;-75
2022/10/12 02:45:43;;;;;;;0.50;0.50;;;7.10;86.80;;;;;;6275963;22;20820;-75
2022/10/12 02:48:14;;;;;;;1.33;0.60;;;7.00;86.80;;;;;;6248022;22;20011;-75
2022/10/12 02:50:40;;;;;;;0.50;0.50;;;7.00;86.80;;;;;;6223514;22;20008;-75
2022/10/12 02:53:07;;;;;;;1.88;0.90;;;7.10;86.80;;;;;;6248884;22;20018;-75
2022/10/12 02:55:37;;;;;;;0.50;0.40;;;7.00;86.80;;;;;;6248377;22;20499;-75
2022/10/12 02:58:03;;;;;;;1.70;0.70;;;7.00;87.60;;;;;;6245500;22;20100;-75
2022/10/12 03:00:33;;;;;;;1.20;0.63;;;6.90;86.90;;;;;;6275361;22;20039;-75
2022/10/12 03:02:58;;;;;;;0.50;0.50;;;7.00;87.00;;;;;;6275467;22;20016;-75
2022/10/12 03:05:24;;;;;;;0.50;0.50;;;7.00;87.00;;;;;;6275663;22;20017;-75
2022/10/12 03:07:50;;;;;;;0.80;0.50;;;7.00;87.00;;;;;;6222907;22;20008;-75
2022/10/12 03:10:15;;;;;;;0.50;0.50;;;6.90;86.90;;;;;;6247302;22;20007;-75
2022/10/12 03:12:41;;;;;;;1.35;0.65;;;7.00;87.00;;;;;;6248148;22;20018;-75
2022/10/12 03:15:07;;;;;;;0.70;0.60;;;6.90;87.00;;;;;;6275566;22;20427;-75
2022/10/12 03:17:33;;;;;;;0.82;0.50;;;7.00;87.10;;;;;;6275196;22;20313;-75
2022/10/12 03:19:58;;;;;;;0.38;0.32;;;6.90;87.10;;;;;;6275223;22;20019;-75
2022/10/12 03:22:24;;;;;;;0.68;0.47;;;6.90;87.20;;;;;;6222534;22;20355;-75
2022/10/12 03:24:50;;;;;;;1.10;0.60;;;6.90;87.20;;;;;;6248496;22;20008;-75
2022/10/12 03:27:16;;;;;;;1.48;0.60;;;6.90;87.20;;;;;;6275365;22;20015;-75
2022/10/12 03:29:41;;;;;;;1.33;0.60;;;6.90;87.20;;;;;;6246095;22;20348;-75
2022/10/12 03:32:07;;;;;;;1.38;0.70;;;6.90;87.20;;;;;;6275086;22;20008;-75
2022/10/12 03:34:33;;;;;;;1.38;0.70;;;6.90;87.20;;;;;;6275994;22;20015;-76
2022/10/12 03:36:58;;;;;;;1.52;0.60;;;6.80;87.20;;;;;;6248276;22;20039;-75
2022/10/12 03:39:24;;;;;;;0.70;0.50;;;6.70;87.20;;;;;;6247750;22;20019;-75
2022/10/12 03:41:50;;;;;;;0.55;0.50;;;6.90;87.30;;;;;;6275722;22;20007;-75
2022/10/12 03:44:16;;;;;;;0.38;0.38;;;6.90;87.40;;;;;;6246815;22;20019;-75
2022/10/12 03:46:41;;;;;;;0.40;0.40;;;6.80;87.40;;;;;;6247902;22;20010;-75
2022/10/12 03:49:07;;;;;;;0.57;0.40;;;6.70;87.40;;;;;;6248007;22;20061;-75
2022/10/12 03:51:33;;;;;;;0.80;0.55;;;6.70;87.50;;;;;;6222906;22;20093;-75
2022/10/12 03:53:58;;;;;;;0.60;0.47;;;6.60;87.50;;;;;;6275779;22;20403;-75
2022/10/12 03:56:24;;;;;;;1.02;0.60;;;6.70;87.50;;;;;;6275674;22;20073;-75
2022/10/12 03:58:50;;;;;;;0.98;0.47;;;6.70;87.60;;;;;;6248751;22;20003;-75
2022/10/12 04:01:16;;;;;;;0.68;0.50;;;6.60;87.60;;;;;;6275714;22;20004;-75
2022/10/12 04:03:41;;;;;;;0.55;0.40;;;6.50;87.60;;;;;;6275390;22;20007;-75
2022/10/12 04:06:07;;;;;;;0.70;0.50;;;6.60;87.70;;;;;;6247993;22;20004;-76
2022/10/12 04:08:33;;;;;;;0.57;0.40;;;6.50;87.70;;;;;;6275416;22;20565;-75
2022/10/12 04:10:59;;;;;;;0.40;0.40;;;6.60;87.70;;;;;;6275324;22;20367;-75
2022/10/12 04:13:24;;;;;;;0.45;0.40;;;6.50;87.60;;;;;;6248232;22;20082;-76
2022/10/12 04:15:50;;;;;;;0.32;0.30;;;6.60;87.70;;;;;;6221717;22;20018;-75
2022/10/12 04:18:16;;;;;;;0.50;0.30;;;6.40;87.60;;;;;;6248001;22;20432;-75
2022/10/12 04:20:42;;;;;;;0.50;0.40;;;6.40;87.60;;;;;;6248249;22;20015;-75
2022/10/12 04:23:07;;;;;;;0.75;0.50;;;6.50;87.70;;;;;;6275364;22;20015;-75
2022/10/12 04:25:34;;;;;;;0.45;0.30;;;6.40;87.80;;;;;;6275477;22;20007;-75
2022/10/12 04:28:00;;;;;;;0.40;0.30;;;6.40;87.80;;;;;;6245899;22;20012;-75
2022/10/12 04:30:26;;;;;;;0.30;0.30;;;6.40;87.70;;;;;;6275053;22;20098;-77
2022/10/12 04:32:52;;;;;;;0.80;0.30;;;6.40;88.00;;;;;;6191548;22;20007;-75
2022/10/12 04:35:17;;;;;;;0.47;0.30;;;6.50;87.90;;;;;;6276063;22;20014;-75
2022/10/12 04:37:43;;;;;;;0.50;0.50;;;6.40;87.70;;;;;;6248475;22;20004;-75
2022/10/12 04:40:09;;;;;;;0.57;0.50;;;6.40;87.70;;;;;;6275535;22;20019;-76
2022/10/12 04:42:35;;;;;;;0.60;0.50;;;6.40;87.70;;;;;;6248092;22;20410;-76
2022/10/12 04:45:01;;;;;;;1.38;0.52;;;6.40;87.70;;;;;;6248146;22;20015;-75
2022/10/12 04:47:27;;;;;;;0.40;0.30;;;6.30;87.80;;;;;;6156722;23;20017;-76
2022/10/12 04:49:52;;;;;;;0.30;0.30;;;6.30;87.80;;;;;;6156632;23;20021;-75
2022/10/12 04:52:18;;;;;;;0.50;0.40;;;6.30;87.80;;;;;;6182411;23;20100;-76
2022/10/12 04:54:44;;;;;;;0.80;0.57;;;6.30;87.80;;;;;;6157373;23;20009;-76
2022/10/12 04:57:09;;;;;;;2.75;0.65;;;6.20;87.80;;;;;;6181921;23;20880;-75
2022/10/12 04:59:35;;;;;;;0.93;0.40;;;6.20;87.90;;;;;;6181549;23;20091;-76
2022/10/12 05:02:01;;;;;;;0.30;0.30;;;6.20;88.00;;;;;;6182384;23;20017;-76
2022/10/12 05:04:27;;;;;;;1.02;0.30;;;6.20;88.00;;;;;;6181675;23;20101;-76
2022/10/12 05:06:55;;;;;;;0.80;0.40;;;6.20;88.00;;;;;;6181285;23;20020;-76
2022/10/12 05:09:20;;;;;;;0.38;0.38;;;6.20;88.00;;;;;;6181393;23;20020;-76
2022/10/12 05:11:46;;;;;;;0.40;0.40;;;6.00;87.90;;;;;;6131797;23;20017;-75
2022/10/12 05:14:12;;;;;;;0.50;0.45;;;6.10;88.00;;;;;;6156371;23;20021;-76
2022/10/12 05:16:38;;;;;;;1.25;0.70;;;6.00;88.00;;;;;;6156720;23;20335;-76
2022/10/12 05:19:04;;;;;;;1.50;0.60;;;6.00;88.00;;;;;;6181387;23;20009;-76
2022/10/12 05:21:30;;;;;;;0.38;0.38;;;6.00;88.10;;;;;;6157223;23;20013;-77
2022/10/12 05:23:55;;;;;;;0.25;0.25;;;6.00;88.10;;;;;;6192083;22;20088;-76
2022/10/12 05:26:21;;;;;;;0.80;0.55;;;6.00;88.10;;;;;;6275361;22;20032;-77
2022/10/12 05:28:47;;;;;;;0.25;0.25;;;6.00;88.10;;;;;;6248302;22;20008;-76
2022/10/12 05:31:13;;;;;;;0.35;0.35;;;6.00;88.10;;;;;;6276637;22;20011;-76
2022/10/12 05:33:38;;;;;;;0.85;0.52;;;5.90;88.00;;;;;;6276248;22;20010;-76
2022/10/12 05:36:05;;;;;;;1.08;0.52;;;5.90;88.00;;;;;;6274906;22;20004;-76
2022/10/12 05:38:30;;;;;;;0.30;0.30;;;5.90;88.10;;;;;;6223885;22;20052;-76
2022/10/12 05:40:56;;;;;;;0.65;0.50;;;5.90;88.10;;;;;;6276757;22;20014;-77
2022/10/12 05:43:22;;;;;;;0.40;0.40;;;5.90;88.10;;;;;;6274773;22;20443;-76
2022/10/12 05:45:48;;;;;;;1.13;0.57;;;6.00;88.20;;;;;;6276159;22;20007;-76
2022/10/12 05:48:13;;;;;;;0.82;0.52;;;5.90;88.20;;;;;;6275987;22;20396;-76
2022/10/12 05:50:39;;;;;;;0.73;0.50;;;5.90;88.20;;;;;;6274465;22;20035;-77
2022/10/12 05:53:05;;;;;;;1.00;0.43;;;5.90;88.20;;;;;;6275908;22;20091;-76
2022/10/12 05:55:31;;;;;;;0.40;0.40;;;5.90;88.10;;;;;;6276002;22;20016;-77
2022/10/12 05:57:56;;;;;;;0.50;0.50;;;5.90;88.20;;;;;;6276023;22;20057;-76
2022/10/12 06:00:22;;;;;;;0.88;0.60;;;5.90;88.20;;;;;;6274248;22;20447;-77
2022/10/12 06:02:48;;;;;;;0.90;0.60;;;5.80;88.10;;;;;;6274413;22;20443;-77
2022/10/12 06:05:14;;;;;;;1.08;0.47;;;5.90;88.20;;;;;;6275950;22;20095;-76
2022/10/12 06:07:39;;;;;;;0.75;0.40;;;5.90;88.10;;;;;;6280222;22;20436;-75
2022/10/12 06:10:06;;;;;;;0.98;0.50;;;5.90;88.20;;;;;;6274315;22;20019;-76
2022/10/12 06:12:32;;;;;;;0.80;0.50;;;5.90;88.20;;;;;;6280719;22;20564;-78
2022/10/12 06:14:58;;;;;;;0.40;0.40;;;5.90;88.20;;;;;;6274573;22;20003;-78
2022/10/12 06:17:26;;;;;;;0.90;0.40;;;5.90;88.10;;;;;;6276097;22;20145;-78
2022/10/12 06:19:52;;;;;;;0.85;0.52;;;6.00;88.10;;;;;;6248337;22;20030;-77
2022/10/12 06:22:17;;;;;;;0.95;0.60;;;5.90;88.00;;;;;;6248374;22;20011;-77
2022/10/12 06:24:46;;;;;;;0.40;0.40;;;6.00;87.90;;;;;;6248392;22;20011;-77
2022/10/12 06:27:12;;;;;;;0.63;0.47;;;5.90;87.90;;;;;;6275829;22;20008;-78
2022/10/12 06:29:38;;;;;;;0.63;0.50;;;6.00;87.90;;;;;;6273889;22;20065;-77
2022/10/12 06:32:04;;;;;;;1.05;0.68;;;6.00;87.80;;;;;;6248941;22;20027;-75
2022/10/12 06:34:30;;;;;;;0.47;0.45;;;6.10;87.80;;;;;;6275343;22;20519;-76
2022/10/12 06:36:56;;;;;;;0.57;0.47;;;6.10;87.70;;;;;;6276265;22;20008;-78
2022/10/12 06:39:24;;;;;;;0.30;0.30;;;6.10;88.20;;;;;;6226544;22;20004;-77
2022/10/12 06:41:51;;;;;;;0.30;0.30;;;6.20;87.50;;;;;;6280311;22;20015;-78
2022/10/12 06:44:19;;;;;;;0.30;0.30;;;6.30;87.50;;;;;;6275283;22;20323;-78
2022/10/12 06:46:48;;;;;;;0.80;0.50;;;6.30;87.40;;;;;;6272986;22;20039;-78
2022/10/12 06:49:22;;;;;;;0.55;0.40;;;6.30;87.30;;;;;;6247901;22;20034;-78
2022/10/12 06:51:52;;;;;;;0.50;0.40;;;6.30;87.30;;;;;;6197988;22;20020;-78
2022/10/12 06:54:18;;;;;;;0.47;0.30;;;6.30;87.20;;;;;;6196860;22;20069;-78
2022/10/12 06:56:44;;;;;;;0.55;0.30;;;6.40;87.20;;;;;;6196537;22;20479;-77
2022/10/12 06:59:12;;;;;;;0.75;0.40;;;6.50;87.30;;;;;;6197603;22;20012;-78
2022/10/12 07:38:37;;;;;;;0.40;0.40;;;7.20;86.40;;;;;;6273820;22;20023;-76
2022/10/12 08:17:38;;;;;;;1.08;0.60;;;7.90;86.40;;;;;;6118579;23;20079;-75
2022/10/12 08:26:56;;;;;;;0.70;0.68;;;8.00;86.10;;;;;;5958834;24;20023;-75
2022/10/12 08:32:49;;;;;;;0.50;0.50;;;8.40;86.10;;;;;;5981207;23;20346;-75
2022/10/12 08:35:17;;;;;;;1.05;0.80;;;8.40;86.00;;;;;;5898948;24;20122;-75
2022/10/12 08:37:43;;;;;;;0.60;0.60;;;8.50;85.90;;;;;;5875420;24;20021;-77
2022/10/12 08:40:25;;;;;;;0.88;0.60;;;8.50;85.80;;;;;;5858437;24;20135;-76
2022/10/12 08:43:41;;;;;;;1.30;0.90;;;8.60;85.90;;;;;;5825214;24;20083;-75
2022/10/12 08:54:45;;;;;;;0.65;0.57;;;8.90;85.70;;;;;;5977712;23;20133;-75
2022/10/12 08:57:46;;;;;;;1.50;0.75;;;9.00;85.50;;;;;;5937659;24;20024;-76
2022/10/12 09:11:34;;;;;;;1.20;0.65;;;9.20;85.60;;;;;;5921757;24;20077;-75
2022/10/12 09:14:10;;;;;;;0.52;0.52;;;9.20;85.60;;;;;;5908217;24;20060;-74
2022/10/12 09:16:49;;;;;;;0.80;0.70;;;9.30;85.60;;;;;;5896822;24;20112;-75
2022/10/12 09:36:43;;;;;;;1.60;0.68;;;9.50;85.60;;;;;;6051800;23;20109;-75
2022/10/12 09:39:35;;;;;;;1.25;0.80;;;9.60;85.60;;;;;;6062764;23;20533;-77
2022/10/12 09:42:04;;;;;;;1.20;0.80;;;9.70;85.60;;;;;;6075909;23;20018;-75
2022/10/12 09:52:22;;;;;;;0.85;0.70;;;9.70;85.40;;;;;;5867134;24;20022;-76
2022/10/12 10:13:45;;;;;;;0.75;0.70;;;10.20;85.20;;;;;;5902978;24;20024;-76
2022/10/12 10:16:11;;;;;;;0.80;0.70;;;10.30;85.00;;;;;;5975746;24;20023;-76
2022/10/12 10:18:42;;;;;;;3.05;1.15;;;10.30;84.90;;;;;;5944082;24;20017;-76
2022/10/12 10:21:11;;;;;;;2.25;0.95;;;10.40;85.00;;;;;;5964741;23;20016;-76
2022/10/12 10:23:43;;;;;;;2.15;1.05;;;10.50;85.00;;;;;;6011072;23;20016;-76
2022/10/12 10:26:12;;;;;;;1.25;0.90;;;10.50;85.00;;;;;;6132644;23;20024;-76
2022/10/12 10:28:40;;;;;;;1.58;1.00;;;10.60;84.90;;;;;;6209340;22;20012;-74
2022/10/12 10:31:21;;;;;;;2.13;1.20;;;10.70;84.90;;;;;;6276156;22;20018;-75
2022/10/12 10:34:17;;;;;;;2.38;1.30;;;10.80;84.70;;;;;;6248480;22;20011;-74
2022/10/12 10:36:47;;;;;;;2.00;1.20;;;10.90;84.40;;;;;;6275369;22;20008;-75
2022/10/12 10:39:20;;;;;;;2.65;1.20;;;10.90;84.20;;;;;;6275794;22;20110;-75
2022/10/12 10:41:47;;;;;;;1.67;1.15;;;11.00;84.30;;;;;;6275622;22;20007;-75
2022/10/12 10:44:32;;;;;;;1.88;1.20;;;11.00;84.20;;;;;;6248643;22;20142;-75
2022/10/12 10:47:02;;;;;;;2.05;1.05;;;11.10;84.30;;;;;;6276006;22;20003;-75
2022/10/12 10:49:39;;;;;;;1.23;0.95;;;11.20;84.20;;;;;;6275526;22;20079;-75
2022/10/12 10:52:18;;;;;;;1.05;0.80;;;11.20;84.10;;;;;;6276093;22;20018;-76
2022/10/12 10:54:44;;;;;;;1.33;0.93;;;11.40;84.10;;;;;;6275437;22;20004;-75
2022/10/12 10:57:17;;;;;;;2.78;1.27;;;11.40;84.70;;;;;;6276562;22;20087;-75
2022/10/12 11:00:02;;;;;;;2.30;1.52;;;11.40;84.00;;;;;;6247826;22;20352;-76
2022/10/12 11:02:44;;;;;;;1.80;1.20;;;11.60;83.80;;;;;;6275822;22;20012;-74
2022/10/12 11:05:16;;;;;;;2.83;1.30;;;11.60;83.50;;;;;;6248247;22;20012;-75
2022/10/12 11:07:55;;;;;;;1.75;1.10;;;11.80;83.40;;;;;;6249368;22;20081;-75
2022/10/12 11:10:28;;;;;;;1.35;0.90;;;12.00;83.30;;;;;;6247163;22;20466;-75
2022/10/12 11:13:01;;;;;;;1.60;1.05;;;12.10;83.10;;;;;;6247856;22;20348;-75
2022/10/12 11:15:35;;;;;;;2.83;1.33;;;12.10;83.00;;;;;;6275103;22;20428;-75
2022/10/12 11:18:17;;;;;;;2.03;1.40;;;12.10;83.60;;;;;;6275843;22;20087;-76
2022/10/12 11:20:52;;;;;;;1.65;1.20;;;12.20;82.80;;;;;;6248191;22;20012;-75
2022/10/12 11:23:34;;;;;;;2.45;1.45;;;12.30;82.70;;;;;;6247974;22;20102;-77
2022/10/12 11:26:12;;;;;;;2.13;1.50;;;12.40;82.60;;;;;;6274956;22;20019;-76
2022/10/12 11:28:39;;;;;;;2.40;1.30;;;12.50;82.40;;;;;;6222021;22;20348;-76
2022/10/12 11:31:11;;;;;;;3.00;1.67;;;12.60;82.30;;;;;;6247458;22;20061;-77
2022/10/12 11:33:40;;;;;;;1.90;1.30;;;12.60;82.20;;;;;;6274885;22;20436;-76
2022/10/12 11:36:10;;;;;;;2.75;1.65;;;12.60;82.10;;;;;;6247903;22;20014;-76
2022/10/12 11:39:02;;;;;;;3.20;1.70;;;12.80;82.10;;;;;;6248004;22;20057;-76
2022/10/12 11:41:41;;;;;;;2.60;1.73;;;12.80;81.80;;;;;;6222798;22;20081;-76
2022/10/12 11:44:16;;;;;;;2.92;1.45;;;12.90;81.80;;;;;;6274678;22;20436;-76
2022/10/12 11:46:48;;;;;;;2.60;1.40;;;13.00;81.60;;;;;;6210897;23;20132;-78
2022/10/12 11:49:26;;;;;;;2.35;1.30;;;13.10;81.50;;;;;;6211200;23;20012;-76
2022/10/12 11:51:56;;;;;;;1.13;0.98;;;13.20;81.40;;;;;;6211579;23;20024;-77
2022/10/12 11:54:45;;;;;;;2.35;1.27;;;13.30;81.10;;;;;;6186611;23;20019;-76
2022/10/12 11:57:25;;;;;;;1.77;1.10;;;13.30;81.10;;;;;;6211252;23;20048;-77
2022/10/12 12:00:14;;;;;;;1.40;0.90;;;13.40;81.00;;;;;;6211403;23;20018;-76
2022/10/12 12:02:43;;;;;;;0.98;0.82;;;13.30;81.00;;;;;;6211058;23;20025;-74
2022/10/12 12:05:12;;;;;;;3.55;1.35;;;13.20;81.20;;;;;;6186234;23;20019;-77
2022/10/12 12:07:42;;;;;;;1.17;1.00;;;13.20;81.40;;;;;;6185990;23;20108;-77
2022/10/12 12:10:46;;;;;;;1.85;1.10;;;13.20;81.50;;;;;;6211309;23;20016;-77
2022/10/12 12:13:25;;;;;;;0.75;0.73;;;13.20;81.70;;;;;;6211178;23;20110;-77
2022/10/12 12:16:27;;;;;;;1.52;0.98;;;13.20;81.70;;;;;;6212190;23;20043;-76
2022/10/12 12:19:12;;;;;;;2.35;1.13;;;13.30;81.70;;;;;;6256557;22;20007;-76
2022/10/12 12:22:17;;;;;;;1.17;0.93;;;13.30;81.80;;;;;;6273231;22;20015;-77
2022/10/12 12:25:02;;;;;;;2.42;1.13;;;13.30;81.60;;;;;;6247430;22;20026;-76
2022/10/12 12:27:33;;;;;;;2.90;1.50;;;13.50;81.50;;;;;;6250662;22;20004;-75
2022/10/12 12:30:05;;;;;;;1.30;1.20;;;13.70;81.30;;;;;;6274543;22;20011;-77
2022/10/12 12:32:49;;;;;;;1.95;1.17;;;13.90;80.70;;;;;;6248421;22;20363;-77
2022/10/12 12:35:31;;;;;;;1.80;1.13;;;14.10;80.30;;;;;;6274656;22;20336;-77
2022/10/12 12:38:06;;;;;;;2.17;1.10;;;14.30;80.00;;;;;;6273906;22;20328;-76
2022/10/12 12:40:33;;;;;;;1.40;1.10;;;14.30;79.80;;;;;;6247656;22;20008;-77
2022/10/12 12:43:35;;;;;;;1.25;0.90;;;14.30;79.70;;;;;;6274532;22;20057;-72
2022/10/12 12:46:10;;;;;;;2.72;1.10;;;14.20;79.80;;;;;;6247457;22;20016;-77
2022/10/12 12:48:57;;;;;;;1.20;0.90;;;14.20;79.90;;;;;;6247953;22;20444;-76
2022/10/12 12:51:34;;;;;;;0.82;0.75;;;14.20;80.10;;;;;;6275060;22;20019;-76
2022/10/12 14:08:11;;;;;;;1.15;0.80;;;14.60;80.00;;;;;;6325719;22;20037;-78
2022/10/12 14:22:18;;;;;;;1.00;0.80;;;14.50;79.80;;;;;;6175664;23;20020;-77
2022/10/12 15:31:14;;;;;;;1.92;1.20;;;14.70;78.00;;;;;;6322518;22;20104;-77
2022/10/12 17:29:05;;;;;;;1.05;0.50;;;12.20;82.30;;;;;;6208743;23;20047;-76
2022/10/12 17:36:07;;;;;;;1.05;0.70;;;12.10;82.60;;;;;;5976581;23;20030;-76
2022/10/12 17:38:35;;;;;;;0.95;0.50;;;12.00;82.70;;;;;;5955380;24;20016;-78
2022/10/12 17:41:01;;;;;;;1.17;0.75;;;11.90;82.80;;;;;;5931883;24;20036;-74
2022/10/12 17:43:27;;;;;;;1.20;0.80;;;11.80;82.90;;;;;;5979148;24;20016;-74
2022/10/12 17:45:53;;;;;;;0.98;0.80;;;11.70;82.90;;;;;;5978704;24;20026;-75
2022/10/12 17:48:19;;;;;;;1.02;0.80;;;11.70;83.00;;;;;;5955563;24;20082;-75
2022/10/12 17:50:45;;;;;;;1.40;0.82;;;11.60;83.10;;;;;;5978578;24;20016;-76
2022/10/12 17:53:10;;;;;;;0.95;0.73;;;11.50;83.20;;;;;;5978411;24;20382;-76
2022/10/12 17:55:36;;;;;;;0.70;0.68;;;11.50;83.30;;;;;;5979411;24;20057;-76
2022/10/12 17:58:03;;;;;;;1.30;0.85;;;11.40;83.40;;;;;;5955229;24;20056;-77
2022/10/12 18:00:30;;;;;;;1.02;0.60;;;11.40;83.40;;;;;;5995303;23;20023;-77
2022/10/12 18:02:56;;;;;;;1.35;0.80;;;11.40;83.40;;;;;;6079773;23;20014;-77
2022/10/12 18:05:22;;;;;;;1.08;0.90;;;11.30;83.50;;;;;;6184222;22;20326;-77
2022/10/12 18:07:48;;;;;;;0.98;0.80;;;11.30;83.70;;;;;;6275762;22;20007;-77
2022/10/12 18:10:14;;;;;;;1.17;0.70;;;11.20;83.70;;;;;;6274948;22;21176;-77
2022/10/12 18:12:39;;;;;;;1.17;0.75;;;11.20;83.80;;;;;;6220679;22;20016;-77
2022/10/12 18:15:06;;;;;;;0.88;0.63;;;11.10;83.80;;;;;;6275537;22;20015;-77
2022/10/12 18:17:34;;;;;;;1.30;0.82;;;11.00;83.80;;;;;;6274589;22;20000;-77
2022/10/12 18:20:00;;;;;;;1.90;0.80;;;11.00;83.90;;;;;;6275390;22;20004;-77
2022/10/12 18:22:26;;;;;;;0.90;0.73;;;11.00;83.90;;;;;;6231120;22;20020;-78
2022/10/12 18:24:52;;;;;;;1.27;0.85;;;11.00;83.90;;;;;;6245624;22;20000;-78
2022/10/12 18:27:17;;;;;;;1.52;0.82;;;10.90;84.00;;;;;;6195957;22;20061;-75
2022/10/12 18:29:43;;;;;;;1.20;0.82;;;10.90;84.10;;;;;;6274635;22;20455;-76
2022/10/12 18:32:10;;;;;;;1.67;0.90;;;10.80;84.10;;;;;;6274748;22;20050;-76
2022/10/12 18:34:37;;;;;;;1.27;0.75;;;10.80;84.10;;;;;;6274424;22;20023;-76
2022/10/12 18:37:04;;;;;;;1.90;0.90;;;10.80;84.20;;;;;;6247272;22;20015;-76
2022/10/12 18:39:30;;;;;;;1.52;1.00;;;10.70;84.20;;;;;;6274786;22;20428;-76
2022/10/12 18:41:56;;;;;;;1.40;1.00;;;10.60;84.10;;;;;;6274680;22;20384;-76
2022/10/12 18:44:22;;;;;;;1.17;0.82;;;10.70;84.20;;;;;;6274586;22;19996;-76
2022/10/12 18:46:48;;;;;;;1.52;0.70;;;10.70;84.20;;;;;;6268389;22;20035;-76
2022/10/12 18:49:15;;;;;;;1.63;0.75;;;10.70;84.10;;;;;;6274976;22;20278;-76
2022/10/12 18:51:45;;;;;;;1.10;0.77;;;10.70;84.20;;;;;;6246848;22;20440;-76
2022/10/12 18:54:12;;;;;;;1.50;0.93;;;10.70;84.20;;;;;;6274839;22;20006;-76
2022/10/12 18:56:39;;;;;;;0.93;0.80;;;10.60;84.10;;;;;;6247744;22;20003;-76
2022/10/12 18:59:06;;;;;;;1.38;0.70;;;10.70;84.10;;;;;;6273809;22;20008;-76
2022/10/12 19:01:32;;;;;;;0.95;0.77;;;10.60;84.10;;;;;;6222223;22;19999;-76
2022/10/12 19:04:00;;;;;;;1.35;0.80;;;10.60;84.10;;;;;;6275015;22;20417;-76
2022/10/12 19:06:29;;;;;;;1.63;1.05;;;10.60;84.10;;;;;;6219304;22;20365;-76
2022/10/12 19:08:55;;;;;;;0.82;0.80;;;10.50;84.10;;;;;;6275448;22;20003;-76
2022/10/12 19:11:22;;;;;;;1.35;0.90;;;10.60;84.20;;;;;;6274610;22;20047;-76
2022/10/12 19:13:54;;;;;;;0.70;0.55;;;10.50;84.20;;;;;;6274953;22;20000;-76
2022/10/12 19:16:20;;;;;;;;;;;10.60;84.30;;;;;;6274992;22;20020;-76
2022/10/12 19:18:46;;;;;;;0.45;0.45;;;10.70;84.30;;;;;;6274633;22;20874;-77
2022/10/12 19:21:15;;;;;;;1.45;0.70;;;10.50;84.10;;;;;;6247563;22;20015;-76
2022/10/12 19:23:41;;;;;;;1.00;0.60;;;10.40;84.10;;;;;;6247967;22;20004;-75
2022/10/12 19:26:10;;;;;;;1.88;0.90;;;10.50;84.20;;;;;;6242883;22;20124;-76
2022/10/12 19:28:36;;;;;;;1.30;0.93;;;10.50;84.20;;;;;;6274307;22;20004;-76
2022/10/12 19:31:09;;;;;;;1.80;0.80;;;10.40;84.10;;;;;;6245758;22;20095;-76
2022/10/12 19:33:35;;;;;;;1.15;0.57;;;10.50;84.30;;;;;;6247368;22;20006;-75
2022/10/12 19:36:04;;;;;;;1.10;0.80;;;10.40;84.20;;;;;;6274744;22;20154;-76
2022/10/12 19:38:30;;;;;;;0.60;0.60;;;10.50;84.30;;;;;;6222262;22;20542;-76
2022/10/12 19:40:56;;;;;;;1.30;0.73;;;10.50;84.20;;;;;;6247362;22;20042;-75
2022/10/12 19:43:22;;;;;;;1.38;0.85;;;10.50;84.20;;;;;;6247980;22;20073;-76
2022/10/12 19:45:49;;;;;;;0.95;0.80;;;10.50;84.30;;;;;;6274254;22;20087;-76
2022/10/12 19:48:15;;;;;;;0.57;0.57;;;10.50;84.20;;;;;;6274355;22;20011;-76
2022/10/12 19:50:41;;;;;;;1.33;0.75;;;10.50;84.20;;;;;;6246666;22;20012;-76
2022/10/12 19:53:08;;;;;;;1.08;0.73;;;10.40;84.10;;;;;;6274238;22;20000;-76
2022/10/12 19:55:38;;;;;;;1.80;0.93;;;10.50;84.20;;;;;;6247932;22;20007;-76
2022/10/12 19:58:06;;;;;;;0.93;0.60;;;10.50;84.20;;;;;;6247962;22;20054;-76
2022/10/12 20:00:34;;;;;;;0.70;0.60;;;10.50;84.20;;;;;;6274235;22;20439;-76
2022/10/12 20:03:00;;;;;;;0.93;0.80;;;10.50;84.20;;;;;;6220822;22;20004;-75
2022/10/12 20:05:26;;;;;;;0.73;0.60;;;10.50;84.20;;;;;;6247671;22;20095;-75
2022/10/12 20:07:52;;;;;;;1.40;0.73;;;10.40;84.10;;;;;;6246293;22;20034;-76
2022/10/12 20:10:17;;;;;;;0.80;0.60;;;10.50;84.20;;;;;;6273834;22;20018;-75